首页
METAR-TAF:

METAR-TAF

机场 :

Grande Prairie, 艾伯塔, 加拿大

纬度: 55-11N, 经度: 118-53W, 海拔: 666米

当前天气观测

该预报发布于1小时和8分钟前的15:00 UTC
风速13节,风向西转西南,有时为19节阵风
温度 12°C
湿度 62%
气压 1005 hPa
能見度: 40.2公里
少量云层高于6000英尺, 塔状积云.
多云层高于8000英尺
多云层高于24000英尺
附近有阵雨

METAR: CYQU 261500Z 25013G19KT 25SM VCSH FEW060TCU BKN080 BKN240 12/05 A2968 RMK TCU2AC4CI1 SLP064 DENSITY ALT 2700FT

时间: 10:08 (16:08 UTC)

预报

该预报发布于3小时和28分钟前的12:40 UTC
预报有效从26日的 13点(UTC)到 27日的 01点(UTC)
风速8节,风向西转西北
能見度: 10公里
多云层高于9000英尺
成为
从 26日的 15点(UTC)到 26日的 17点(UTC)
风速15节,风向西,有时为25节阵风
从 26日的 2000点(UTC)
风速18节,风向西转西南,有时为28节阵风
能見度: 10公里
散云层高于8000英尺
多云层高于20000英尺

TAF: CYQU 261240Z 2613/2701 29008KT P6SM BKN090 BECMG 2615/2617 26015G25KT FM262000 25018G28KT P6SM SCT080 BKN200 RMK NXT FCST BY 261900Z

超过4000个机场的气象观测和天气预报(METAR&TAF报告)。

可查询的气象台以黄色和红色小点在地图上表示。

将鼠标移到小点上方,可查看气象台名称。

然后点击查看天气观测和预报。

如需切换地图:点击带黑十字的绿色按钮放大地图;点击带横线的绿色按钮缩小地图;或者点击绿色箭头查看邻近地区的地图。


METAR-TAF: